Time;durP1;ratioP1;P1;durP2;ratioP2;P2;SDS_P1;SDS_P2;PMS_P1;PMS_P2;Temp;Humidity;BMP_temperature;BMP_pressure;BME280_temperature;BME280_humidity;BME280_pressure;Samples;Min_cycle;Max_cycle;Signal;HPM_P1;HPM_P2
2023/12/23 00:01:05;;;;;;;;;;;0.80;81.90;;;;;;5135601;23;19904;-83
2023/12/23 00:03:44;;;;;;;;;;;0.80;82.00;;;;;;5135444;23;20487;-83
2023/12/23 00:05:54;;;;;;;;;;;0.70;81.90;;;;;;5161622;23;20331;-83
2023/12/23 00:08:04;;;;;;;;;;;0.80;82.00;;;;;;5163091;23;19908;-83
2023/12/23 00:21:42;;;;;;;;;;;1.10;81.50;;;;;;5139847;22;20421;-82
2023/12/23 00:24:03;;;;;;;;;;;0.90;81.20;;;;;;5189152;22;19907;-83
2023/12/23 00:26:23;;;;;;;;;;;1.00;81.10;;;;;;5188652;22;19918;-82
2023/12/23 00:28:44;;;;;;;;;;;1.00;81.00;;;;;;5188871;22;19907;-82
2023/12/23 00:31:04;;;;;;;;;;;1.10;80.90;;;;;;5162217;23;19931;-83
2023/12/23 00:33:25;;;;;;;;;;;1.00;80.70;;;;;;5140773;23;19966;-83
2023/12/23 00:35:46;;;;;;;;;;;1.10;80.60;;;;;;5139839;23;19969;-82
2023/12/23 00:38:15;;;;;;;;;;;1.00;80.40;;;;;;5162857;23;19923;-82
2023/12/23 00:40:35;;;;;;;;;;;1.00;80.20;;;;;;5139876;23;19904;-82
2023/12/23 00:42:37;;;;;;;;;;;1.00;80.10;;;;;;5135563;23;19954;-83
2023/12/23 00:44:37;;;;;;;;;;;1.00;79.90;;;;;;5137120;23;19990;-83
2023/12/23 00:46:38;;;;;;;;;;;1.20;80.10;;;;;;5161501;23;20374;-82
2023/12/23 00:48:38;;;;;;;;;;;1.10;79.90;;;;;;5162790;23;19900;-83
2023/12/23 00:50:48;;;;;;;;;;;1.20;80.00;;;;;;5136566;23;19907;-83
2023/12/23 00:53:04;;;;;;;;;;;1.20;79.90;;;;;;5136325;23;19908;-83
2023/12/23 00:55:08;;;;;;;;;;;1.10;79.80;;;;;;5137140;23;19904;-83
2023/12/23 00:57:08;;;;;;;;;;;1.20;79.80;;;;;;5160591;23;20224;-83
2023/12/23 00:59:12;;;;;;;;;;;1.20;79.80;;;;;;5161890;23;19907;-82
2023/12/23 01:01:32;;;;;;;;;;;1.20;79.70;;;;;;5163471;23;19927;-83
2023/12/23 01:03:53;;;;;;;;;;;1.30;79.60;;;;;;5163983;23;20105;-82
2023/12/23 01:06:14;;;;;;;;;;;1.30;79.50;;;;;;5162192;23;19949;-84
2023/12/23 01:08:34;;;;;;;;;;;1.30;79.50;;;;;;5162694;23;19980;-82
2023/12/23 01:10:55;;;;;;;;;;;1.40;79.50;;;;;;5165662;23;19912;-83
2023/12/23 01:13:15;;;;;;;;;;;1.40;79.30;;;;;;5167220;23;19904;-83
2023/12/23 01:15:36;;;;;;;;;;;1.30;79.20;;;;;;5142970;23;19904;-83
2023/12/23 01:17:37;;;;;;;;;;;1.50;79.40;;;;;;5164281;23;20357;-82
2023/12/23 01:19:38;;;;;;;;;;;1.40;79.20;;;;;;5165708;23;20000;-82
2023/12/23 01:21:38;;;;;;;;;;;1.40;79.30;;;;;;5166511;23;20251;-83
2023/12/23 01:23:39;;;;;;;;;;;1.50;79.30;;;;;;5140748;23;19911;-83
2023/12/23 01:25:39;;;;;;;;;;;1.50;79.30;;;;;;5164548;23;20274;-82
2023/12/23 01:27:40;;;;;;;;;;;1.50;79.40;;;;;;5164248;23;20322;-82
2023/12/23 01:29:40;;;;;;;;;;;1.50;79.40;;;;;;5165433;23;19911;-83
2023/12/23 01:31:41;;;;;;;;;;;1.50;79.50;;;;;;5138709;23;19952;-82
2023/12/23 01:33:41;;;;;;;;;;;1.60;79.70;;;;;;5164586;23;20425;-82
2023/12/23 01:35:45;;;;;;;;;;;1.60;79.70;;;;;;5137589;23;19952;-83
2023/12/23 01:38:05;;;;;;;;;;;1.60;79.70;;;;;;5165256;23;19908;-83
2023/12/23 01:40:26;;;;;;;;;;;1.60;79.90;;;;;;5162296;23;19908;-82
2023/12/23 01:42:46;;;;;;;;;;;1.60;80.10;;;;;;5165814;23;19903;-81
2023/12/23 01:45:07;;;;;;;;;;;1.70;80.30;;;;;;5143933;23;19935;-83
2023/12/23 01:47:28;;;;;;;;;;;1.70;80.30;;;;;;5143997;23;19946;-84
2023/12/23 01:49:48;;;;;;;;;;;1.70;80.40;;;;;;5165949;23;19907;-82
2023/12/23 01:52:09;;;;;;;;;;;1.70;80.40;;;;;;5140017;23;20530;-83
2023/12/23 01:54:30;;;;;;;;;;;1.70;80.50;;;;;;5141728;23;19985;-82
2023/12/23 01:56:50;;;;;;;;;;;1.80;80.40;;;;;;5166710;23;19912;-82
2023/12/23 01:59:11;;;;;;;;;;;1.80;80.20;;;;;;5143272;23;19908;-82
2023/12/23 02:01:32;;;;;;;;;;;1.80;80.30;;;;;;5144289;23;19908;-83
2023/12/23 02:03:52;;;;;;;;;;;1.80;80.20;;;;;;5167750;23;19962;-84
2023/12/23 02:06:16;;;;;;;;;;;1.80;80.20;;;;;;5165334;23;19908;-83
2023/12/23 02:08:17;;;;;;;;;;;1.80;80.40;;;;;;5163697;23;20251;-84
2023/12/23 02:10:17;;;;;;;;;;;1.90;80.70;;;;;;5139104;23;19920;-84
2023/12/23 02:12:26;;;;;;;;;;;1.90;81.00;;;;;;5165965;23;19914;-83
2023/12/23 02:14:47;;;;;;;;;;;1.80;81.00;;;;;;5166766;23;20288;-83
2023/12/23 02:16:49;;;;;;;;;;;1.80;81.00;;;;;;5165110;23;20341;-84
2023/12/23 02:18:49;;;;;;;;;;;1.80;81.80;;;;;;5140237;23;20372;-82
2023/12/23 02:20:50;;;;;;;;;;;1.80;81.00;;;;;;5167506;23;19908;-83
2023/12/23 02:22:50;;;;;;;;;;;1.80;80.80;;;;;;5141536;23;19916;-82
2023/12/23 02:24:51;;;;;;;;;;;1.80;80.70;;;;;;5167920;23;20512;-83
2023/12/23 02:26:55;;;;;;;;;;;1.90;80.60;;;;;;5140299;23;19908;-83
2023/12/23 02:28:56;;;;;;;;;;;1.80;80.40;;;;;;5140793;23;19908;-84
2023/12/23 02:30:57;;;;;;;;;;;1.80;80.20;;;;;;5163978;23;20308;-83
2023/12/23 02:32:58;;;;;;;;;;;1.90;80.20;;;;;;5166985;23;20117;-83
2023/12/23 02:34:59;;;;;;;;;;;1.90;80.10;;;;;;5140914;23;19919;-83
2023/12/23 02:36:59;;;;;;;;;;;1.90;79.90;;;;;;5167825;23;20318;-82
2023/12/23 02:39:00;;;;;;;;;;;1.90;79.70;;;;;;5168137;23;19911;-83
2023/12/23 02:41:00;;;;;;;;;;;1.90;79.70;;;;;;5166821;23;19903;-83
2023/12/23 02:43:01;;;;;;;;;;;1.90;79.50;;;;;;5140600;23;19940;-82
2023/12/23 02:45:03;;;;;;;;;;;1.90;79.50;;;;;;5166955;23;20316;-82
2023/12/23 02:47:03;;;;;;;;;;;1.90;79.30;;;;;;5139724;23;20018;-82
2023/12/23 02:49:04;;;;;;;;;;;1.90;79.20;;;;;;5165831;23;19907;-83
2023/12/23 02:51:05;;;;;;;;;;;2.00;79.20;;;;;;5166598;23;19910;-82
2023/12/23 02:53:08;;;;;;;;;;;1.90;79.10;;;;;;5139976;23;19904;-82
2023/12/23 02:55:08;;;;;;;;;;;1.90;79.00;;;;;;5165876;23;19993;-83
2023/12/23 02:57:09;;;;;;;;;;;1.90;79.00;;;;;;5166400;23;19978;-84
2023/12/23 02:59:09;;;;;;;;;;;1.90;79.20;;;;;;5166548;23;19907;-82
2023/12/23 03:01:10;;;;;;;;;;;1.90;79.20;;;;;;5166538;23;19908;-83
2023/12/23 03:03:10;;;;;;;;;;;1.90;79.30;;;;;;5166154;23;19910;-83
2023/12/23 03:05:11;;;;;;;;;;;2.00;79.70;;;;;;5139074;23;19915;-83
2023/12/23 03:07:11;;;;;;;;;;;1.90;79.70;;;;;;5165963;23;19918;-83
2023/12/23 03:09:12;;;;;;;;;;;1.90;79.80;;;;;;5166210;23;19903;-83
2023/12/23 03:11:13;;;;;;;;;;;2.00;79.80;;;;;;5164836;23;19919;-84
2023/12/23 03:13:13;;;;;;;;;;;1.90;79.70;;;;;;5139023;23;19911;-84
2023/12/23 03:15:14;;;;;;;;;;;1.90;79.90;;;;;;5165936;23;19904;-84
2023/12/23 03:17:14;;;;;;;;;;;1.90;80.00;;;;;;5166425;23;20006;-84
2023/12/23 03:19:15;;;;;;;;;;;1.90;80.10;;;;;;5165730;23;19904;-84
2023/12/23 03:21:16;;;;;;;;;;;1.90;80.20;;;;;;5166796;23;19923;-83
2023/12/23 03:23:16;;;;;;;;;;;1.90;80.30;;;;;;5164914;23;19954;-84
2023/12/23 03:25:17;;;;;;;;;;;1.90;80.30;;;;;;5167161;23;19911;-85
2023/12/23 03:27:18;;;;;;;;;;;1.90;80.30;;;;;;5164011;23;19914;-84
2023/12/23 03:29:19;;;;;;;;;;;1.90;80.20;;;;;;5168302;23;19957;-83
2023/12/23 03:31:20;;;;;;;;;;;1.80;80.30;;;;;;5140562;23;19908;-84
2023/12/23 03:33:23;;;;;;;;;;;1.90;80.20;;;;;;5166863;23;20444;-83
2023/12/23 03:35:23;;;;;;;;;;;1.90;80.10;;;;;;5167313;23;19908;-84
2023/12/23 03:37:30;;;;;;;;;;;1.90;80.50;;;;;;5166718;23;19969;-83
2023/12/23 03:39:30;;;;;;;;;;;1.90;80.70;;;;;;5167623;23;20261;-84
2023/12/23 03:41:31;;;;;;;;;;;2.00;80.70;;;;;;5168467;23;19912;-84
2023/12/23 03:43:31;;;;;;;;;;;1.90;80.60;;;;;;5168291;23;19952;-83
2023/12/23 03:45:32;;;;;;;;;;;1.90;80.60;;;;;;5167671;23;19908;-84
2023/12/23 03:47:33;;;;;;;;;;;1.90;80.70;;;;;;5167515;23;20316;-84
2023/12/23 03:49:34;;;;;;;;;;;2.00;80.90;;;;;;5167122;23;19908;-84
2023/12/23 03:51:35;;;;;;;;;;;2.00;81.00;;;;;;5165789;23;20030;-85
2023/12/23 03:53:35;;;;;;;;;;;1.90;81.00;;;;;;5166871;23;19903;-83
2023/12/23 03:55:38;;;;;;;;;;;2.00;81.20;;;;;;5166556;23;19904;-84
2023/12/23 03:57:38;;;;;;;;;;;2.00;81.20;;;;;;5167114;23;19974;-84
2023/12/23 03:59:39;;;;;;;;;;;2.00;81.20;;;;;;5166089;23;19904;-83
2023/12/23 04:01:42;;;;;;;;;;;2.00;81.20;;;;;;5139752;23;19979;-83
2023/12/23 04:03:43;;;;;;;;;;;2.00;81.20;;;;;;5169003;23;20348;-83
2023/12/23 04:05:43;;;;;;;;;;;2.00;81.10;;;;;;5167105;23;19922;-83
2023/12/23 04:07:46;;;;;;;;;;;2.10;81.00;;;;;;5167447;23;19931;-83
2023/12/23 04:09:47;;;;;;;;;;;2.20;81.00;;;;;;5169865;23;20239;-84
2023/12/23 04:11:47;;;;;;;;;;;2.10;80.90;;;;;;5142314;23;19908;-83
2023/12/23 04:13:48;;;;;;;;;;;2.20;80.80;;;;;;5166346;23;19914;-83
2023/12/23 04:15:49;;;;;;;;;;;2.10;80.70;;;;;;5168795;23;19982;-83
2023/12/23 04:17:49;;;;;;;;;;;2.20;80.70;;;;;;5166835;23;19908;-83
2023/12/23 04:19:50;;;;;;;;;;;2.20;80.60;;;;;;5168644;23;19903;-83
2023/12/23 04:21:50;;;;;;;;;;;2.20;80.50;;;;;;5143239;23;19923;-82
2023/12/23 04:23:51;;;;;;;;;;;2.30;80.50;;;;;;5167876;23;19962;-84
2023/12/23 04:25:51;;;;;;;;;;;2.30;80.40;;;;;;5167658;23;19959;-83
2023/12/23 04:27:53;;;;;;;;;;;2.30;80.30;;;;;;5167274;23;19908;-84
2023/12/23 04:29:54;;;;;;;;;;;2.30;80.20;;;;;;5141439;23;19986;-84
2023/12/23 04:31:54;;;;;;;;;;;2.40;80.20;;;;;;5167652;23;19970;-83
2023/12/23 04:33:55;;;;;;;;;;;2.40;80.20;;;;;;5167992;23;19907;-83
2023/12/23 04:35:55;;;;;;;;;;;2.30;80.00;;;;;;5140073;23;19978;-84
2023/12/23 04:37:56;;;;;;;;;;;2.30;79.90;;;;;;5168541;23;20247;-83
2023/12/23 04:39:56;;;;;;;;;;;2.40;79.80;;;;;;5140158;23;19904;-83
2023/12/23 04:41:57;;;;;;;;;;;2.40;79.80;;;;;;5167179;23;19910;-83
2023/12/23 04:43:58;;;;;;;;;;;2.40;79.80;;;;;;5167372;23;20375;-83
2023/12/23 04:45:58;;;;;;;;;;;2.40;79.80;;;;;;5167118;23;19908;-84
2023/12/23 04:47:59;;;;;;;;;;;2.40;79.80;;;;;;5167595;23;19962;-82
2023/12/23 04:49:59;;;;;;;;;;;2.40;79.80;;;;;;5167407;23;19930;-84
2023/12/23 04:52:00;;;;;;;;;;;2.40;80.00;;;;;;5167009;23;19961;-84
2023/12/23 04:54:00;;;;;;;;;;;2.40;80.00;;;;;;5165685;23;19915;-83
2023/12/23 04:56:01;;;;;;;;;;;2.40;80.00;;;;;;5140826;23;20302;-83
2023/12/23 04:58:01;;;;;;;;;;;2.50;79.90;;;;;;5166395;23;19911;-81
2023/12/23 05:00:05;;;;;;;;;;;2.40;79.70;;;;;;5139668;23;19954;-83
2023/12/23 05:02:06;;;;;;;;;;;2.40;79.70;;;;;;5163182;23;20245;-83
2023/12/23 05:04:06;;;;;;;;;;;2.50;79.70;;;;;;5138465;23;19918;-82
2023/12/23 05:06:07;;;;;;;;;;;2.60;79.80;;;;;;5163561;23;19908;-82
2023/12/23 05:08:07;;;;;;;;;;;2.50;79.70;;;;;;5138108;23;19999;-82
2023/12/23 05:10:08;;;;;;;;;;;2.60;79.80;;;;;;5164897;23;19907;-83
2023/12/23 05:12:09;;;;;;;;;;;2.50;79.70;;;;;;5136690;23;19978;-83
2023/12/23 05:14:10;;;;;;;;;;;2.50;79.70;;;;;;5162263;23;20278;-83
2023/12/23 05:16:10;;;;;;;;;;;2.50;79.80;;;;;;5136928;23;19908;-84
2023/12/23 05:18:11;;;;;;;;;;;2.50;79.80;;;;;;5163535;23;19912;-82
2023/12/23 05:20:11;;;;;;;;;;;2.60;79.90;;;;;;5136406;23;19950;-83
2023/12/23 05:22:12;;;;;;;;;;;2.50;79.80;;;;;;5161885;23;19930;-83
2023/12/23 05:24:12;;;;;;;;;;;2.60;80.00;;;;;;5138484;23;20860;-83
2023/12/23 05:26:16;;;;;;;;;;;2.60;80.10;;;;;;5162243;23;19931;-83
2023/12/23 05:28:16;;;;;;;;;;;2.50;80.30;;;;;;5165004;23;20408;-83
2023/12/23 05:30:17;;;;;;;;;;;2.50;80.60;;;;;;5137412;23;19910;-83
2023/12/23 05:32:17;;;;;;;;;;;2.40;80.80;;;;;;5159640;23;19937;-84
2023/12/23 05:34:18;;;;;;;;;;;2.50;80.80;;;;;;5137236;23;19904;-83
2023/12/23 05:36:19;;;;;;;;;;;2.40;80.50;;;;;;5161644;23;19907;-83
2023/12/23 05:38:19;;;;;;;;;;;2.50;80.40;;;;;;5137979;23;19907;-83
2023/12/23 05:40:20;;;;;;;;;;;2.40;80.20;;;;;;5163303;23;19903;-83
2023/12/23 05:42:20;;;;;;;;;;;2.50;80.10;;;;;;5136849;23;19907;-82
2023/12/23 05:44:21;;;;;;;;;;;2.50;79.90;;;;;;5161437;23;20366;-82
2023/12/23 05:46:21;;;;;;;;;;;2.50;79.80;;;;;;5136220;23;19910;-83
2023/12/23 05:48:22;;;;;;;;;;;2.50;79.80;;;;;;5164540;23;19960;-83
2023/12/23 05:50:22;;;;;;;;;;;2.50;79.80;;;;;;5163972;23;20224;-83
2023/12/23 05:52:23;;;;;;;;;;;2.50;79.80;;;;;;5163022;23;19979;-84
2023/12/23 05:54:23;;;;;;;;;;;2.60;79.90;;;;;;5159910;23;19911;-82
2023/12/23 05:56:24;;;;;;;;;;;2.50;79.80;;;;;;5135389;23;20312;-83
2023/12/23 05:58:25;;;;;;;;;;;2.50;79.70;;;;;;5162207;23;19907;-83
2023/12/23 06:00:25;;;;;;;;;;;2.50;79.60;;;;;;5135924;23;19931;-83
2023/12/23 06:02:26;;;;;;;;;;;2.50;79.50;;;;;;5160292;23;19943;-82
2023/12/23 06:04:27;;;;;;;;;;;2.50;79.50;;;;;;5136128;23;20006;-83
2023/12/23 06:06:27;;;;;;;;;;;2.50;79.50;;;;;;5158680;23;19939;-83
2023/12/23 06:08:28;;;;;;;;;;;2.50;79.50;;;;;;5162938;23;20640;-84
2023/12/23 06:10:28;;;;;;;;;;;2.40;79.50;;;;;;5166299;23;19907;-83
2023/12/23 06:12:29;;;;;;;;;;;2.40;79.50;;;;;;5137026;23;19907;-83
2023/12/23 06:14:30;;;;;;;;;;;2.50;79.50;;;;;;5163839;23;19903;-82
2023/12/23 06:16:30;;;;;;;;;;;2.40;79.50;;;;;;5165858;23;19908;-82
2023/12/23 06:18:31;;;;;;;;;;;2.50;79.50;;;;;;5167294;23;20065;-83
2023/12/23 06:20:31;;;;;;;;;;;2.40;79.40;;;;;;5166420;23;19961;-84
2023/12/23 06:22:32;;;;;;;;;;;2.40;79.50;;;;;;5164818;23;19935;-83
2023/12/23 06:24:32;;;;;;;;;;;2.40;79.40;;;;;;5138377;23;19908;-83
2023/12/23 06:26:33;;;;;;;;;;;2.40;79.40;;;;;;5165474;23;19903;-83
2023/12/23 06:28:33;;;;;;;;;;;2.40;79.40;;;;;;5140018;23;19908;-83
2023/12/23 06:30:34;;;;;;;;;;;2.40;79.30;;;;;;5164828;23;19915;-83
2023/12/23 06:32:34;;;;;;;;;;;2.50;79.40;;;;;;5165446;23;19930;-83
2023/12/23 06:34:35;;;;;;;;;;;2.50;79.30;;;;;;5167152;23;19911;-83
2023/12/23 06:36:35;;;;;;;;;;;2.40;79.30;;;;;;5165703;23;19935;-83
2023/12/23 06:38:36;;;;;;;;;;;2.50;79.20;;;;;;5139734;23;19904;-83
2023/12/23 06:40:36;;;;;;;;;;;2.50;79.20;;;;;;5166968;23;19923;-83
2023/12/23 06:42:37;;;;;;;;;;;2.40;79.10;;;;;;5138031;23;19908;-84
2023/12/23 06:44:37;;;;;;;;;;;2.50;79.10;;;;;;5164948;23;19908;-83
2023/12/23 06:46:38;;;;;;;;;;;2.50;79.10;;;;;;5140292;23;19908;-83
2023/12/23 06:48:38;;;;;;;;;;;2.50;79.10;;;;;;5166248;23;19906;-83
2023/12/23 06:50:39;;;;;;;;;;;2.50;79.10;;;;;;5166154;23;19975;-83
2023/12/23 06:52:41;;;;;;;;;;;2.50;79.00;;;;;;5140164;23;19908;-84
2023/12/23 06:54:41;;;;;;;;;;;2.50;79.00;;;;;;5166839;23;19912;-85
2023/12/23 06:56:42;;;;;;;;;;;2.50;79.00;;;;;;5168255;23;20437;-84
2023/12/23 06:58:42;;;;;;;;;;;2.50;79.00;;;;;;5142476;23;19908;-83
2023/12/23 07:00:43;;;;;;;;;;;2.50;79.10;;;;;;5166269;23;19986;-83
2023/12/23 07:02:43;;;;;;;;;;;2.50;79.00;;;;;;5139958;23;19911;-83
2023/12/23 07:04:45;;;;;;;;;;;2.50;79.10;;;;;;5141571;23;20171;-83
2023/12/23 07:06:46;;;;;;;;;;;2.50;79.00;;;;;;5141457;23;19908;-83
2023/12/23 07:08:46;;;;;;;;;;;2.50;79.00;;;;;;5167811;23;19954;-83
2023/12/23 07:10:47;;;;;;;;;;;2.50;79.10;;;;;;5169178;23;19916;-83
2023/12/23 07:12:47;;;;;;;;;;;2.50;79.10;;;;;;5170598;23;19904;-83
2023/12/23 07:14:48;;;;;;;;;;;2.50;79.10;;;;;;5169412;23;19908;-83
2023/12/23 07:16:48;;;;;;;;;;;2.50;79.10;;;;;;5141568;23;19932;-83
2023/12/23 07:18:49;;;;;;;;;;;2.50;79.10;;;;;;5168212;23;19914;-83
2023/12/23 07:20:49;;;;;;;;;;;2.50;79.00;;;;;;5169759;23;19914;-84
2023/12/23 07:22:50;;;;;;;;;;;2.50;79.10;;;;;;5142315;23;19915;-82
2023/12/23 07:24:50;;;;;;;;;;;2.50;79.00;;;;;;5167152;23;19973;-83
2023/12/23 07:26:51;;;;;;;;;;;2.50;79.00;;;;;;5168352;23;19918;-83
2023/12/23 07:28:51;;;;;;;;;;;2.50;78.90;;;;;;5170041;23;19911;-82
2023/12/23 07:30:52;;;;;;;;;;;2.50;78.90;;;;;;5169030;23;19915;-83
2023/12/23 07:32:52;;;;;;;;;;;2.50;78.90;;;;;;5143236;23;19911;-83
2023/12/23 07:34:55;;;;;;;;;;;2.60;78.90;;;;;;5168618;23;19903;-83
2023/12/23 07:36:56;;;;;;;;;;;2.60;78.90;;;;;;5139953;23;19912;-84
2023/12/23 07:38:56;;;;;;;;;;;2.60;78.80;;;;;;5167520;23;19977;-83
2023/12/23 07:40:57;;;;;;;;;;;2.60;78.80;;;;;;5141941;23;19904;-82
2023/12/23 07:42:58;;;;;;;;;;;2.60;78.80;;;;;;5165859;23;19930;-83
2023/12/23 07:44:59;;;;;;;;;;;2.60;78.70;;;;;;5141071;23;20288;-82
2023/12/23 07:46:59;;;;;;;;;;;2.60;78.70;;;;;;5167446;23;19911;-84
2023/12/23 07:49:00;;;;;;;;;;;2.60;78.70;;;;;;5165651;23;19959;-83
2023/12/23 07:51:09;;;;;;;;;;;2.60;78.60;;;;;;5167489;23;20509;-83
2023/12/23 07:53:09;;;;;;;;;;;2.60;78.60;;;;;;5165783;23;19916;-82
2023/12/23 07:58:05;;;;;;;;;;;2.70;78.70;;;;;;5160814;23;20292;-83
2023/12/23 08:02:58;;;;;;;;;;;2.60;78.60;;;;;;5162439;23;20354;-83
2023/12/23 08:04:59;;;;;;;;;;;2.60;78.60;;;;;;5140825;23;19912;-83
2023/12/23 08:07:00;;;;;;;;;;;2.60;78.60;;;;;;5166966;23;19973;-83
2023/12/23 08:09:00;;;;;;;;;;;2.70;78.70;;;;;;5164971;23;19907;-83
2023/12/23 08:11:01;;;;;;;;;;;2.70;78.60;;;;;;5167506;23;19918;-83
2023/12/23 08:13:02;;;;;;;;;;;2.70;78.60;;;;;;5163026;23;20493;-83
2023/12/23 08:15:02;;;;;;;;;;;2.60;78.60;;;;;;5137506;23;19963;-83
2023/12/23 08:17:03;;;;;;;;;;;2.60;78.60;;;;;;5151130;23;19919;-83
2023/12/23 08:19:03;;;;;;;;;;;2.60;78.60;;;;;;5134863;23;19907;-83
2023/12/23 08:21:06;;;;;;;;;;;2.60;78.70;;;;;;5160906;23;19987;-83
2023/12/23 08:23:07;;;;;;;;;;;2.60;78.80;;;;;;5162282;23;19914;-82
2023/12/23 08:25:08;;;;;;;;;;;2.60;78.90;;;;;;5136533;23;20541;-83
2023/12/23 08:27:09;;;;;;;;;;;2.60;78.90;;;;;;5162307;23;20418;-82
2023/12/23 08:29:10;;;;;;;;;;;2.60;78.90;;;;;;5136088;23;19908;-83
2023/12/23 08:31:11;;;;;;;;;;;2.60;78.90;;;;;;5136517;23;20350;-83
2023/12/23 08:33:11;;;;;;;;;;;2.60;78.90;;;;;;5162287;23;19935;-82
2023/12/23 08:35:32;;;;;;;;;;;2.70;79.10;;;;;;5159932;23;19915;-82
2023/12/23 08:37:52;;;;;;;;;;;2.70;79.10;;;;;;5161745;23;19974;-81
2023/12/23 08:40:13;;;;;;;;;;;2.70;79.20;;;;;;5139279;23;19916;-83
2023/12/23 08:42:34;;;;;;;;;;;2.70;79.20;;;;;;5165097;23;19915;-83
2023/12/23 08:44:54;;;;;;;;;;;2.70;79.20;;;;;;5140432;23;20017;-83
2023/12/23 08:47:15;;;;;;;;;;;2.80;79.30;;;;;;5143308;23;19908;-82
2023/12/23 08:49:38;;;;;;;;;;;2.80;79.30;;;;;;5165516;23;19914;-83
2023/12/23 08:51:58;;;;;;;;;;;2.70;79.20;;;;;;5163704;23;20109;-82
2023/12/23 08:53:59;;;;;;;;;;;2.80;79.20;;;;;;5163457;23;20422;-84
2023/12/23 08:55:59;;;;;;;;;;;2.80;79.20;;;;;;5165069;23;19939;-84
2023/12/23 08:58:00;;;;;;;;;;;2.90;79.30;;;;;;5166559;23;20360;-84
2023/12/23 09:00:21;;;;;;;;;;;2.90;79.20;;;;;;5141078;23;20384;-86
2023/12/23 09:02:21;;;;;;;;;;;2.90;79.20;;;;;;5137814;23;19919;-85
2023/12/23 09:04:42;;;;;;;;;;;2.90;79.10;;;;;;5162142;23;19918;-85
2023/12/23 09:07:03;;;;;;;;;;;3.00;79.20;;;;;;5163470;23;19958;-85
2023/12/23 09:09:23;;;;;;;;;;;2.90;79.00;;;;;;5164483;23;19959;-86
2023/12/23 09:11:44;;;;;;;;;;;3.00;79.00;;;;;;5165415;23;19907;-83
2023/12/23 09:14:05;;;;;;;;;;;3.00;79.00;;;;;;5163963;23;19949;-83
2023/12/23 09:16:25;;;;;;;;;;;3.00;78.90;;;;;;5142330;23;19974;-83
2023/12/23 09:18:46;;;;;;;;;;;3.00;78.80;;;;;;5143181;23;19931;-83
2023/12/23 09:21:06;;;;;;;;;;;3.00;78.70;;;;;;5143254;23;19904;-83
2023/12/23 09:23:27;;;;;;;;;;;3.10;78.80;;;;;;5142017;23;19916;-82
2023/12/23 09:25:47;;;;;;;;;;;3.10;78.70;;;;;;5163264;23;20010;-82
2023/12/23 09:28:08;;;;;;;;;;;3.20;78.70;;;;;;5164626;23;19914;-83
2023/12/23 09:30:10;;;;;;;;;;;3.20;78.70;;;;;;5138704;23;19908;-83
2023/12/23 09:32:10;;;;;;;;;;;3.10;78.60;;;;;;5164283;23;20339;-83
2023/12/23 09:34:12;;;;;;;;;;;3.10;78.50;;;;;;5138464;23;19912;-83
2023/12/23 09:36:12;;;;;;;;;;;3.10;78.40;;;;;;5165358;23;19918;-83
2023/12/23 09:38:33;;;;;;;;;;;3.20;78.50;;;;;;5166104;23;19907;-82
2023/12/23 09:40:53;;;;;;;;;;;3.20;78.40;;;;;;5163966;23;19969;-82
2023/12/23 09:43:08;;;;;;;;;;;3.20;78.40;;;;;;5115166;23;19936;-82
2023/12/23 09:45:30;;;;;;;;;;;3.20;78.30;;;;;;5164324;23;20022;-82
2023/12/23 09:47:50;;;;;;;;;;;3.20;78.20;;;;;;5142571;23;19904;-82
2023/12/23 09:50:11;;;;;;;;;;;3.20;78.20;;;;;;5140998;23;19904;-84
2023/12/23 09:52:31;;;;;;;;;;;3.30;78.20;;;;;;5163514;23;19957;-82
2023/12/23 09:54:52;;;;;;;;;;;3.30;78.90;;;;;;5160344;23;19942;-82
2023/12/23 09:57:13;;;;;;;;;;;3.30;78.10;;;;;;5140684;23;19962;-82
2023/12/23 09:59:34;;;;;;;;;;;3.20;78.00;;;;;;5164576;23;19907;-82
2023/12/23 10:01:55;;;;;;;;;;;3.30;78.10;;;;;;5162417;23;19972;-81
2023/12/23 10:04:15;;;;;;;;;;;3.30;78.00;;;;;;5163361;23;20002;-82
2023/12/23 10:06:36;;;;;;;;;;;3.30;78.00;;;;;;5162833;23;19907;-82
2023/12/23 10:08:56;;;;;;;;;;;3.30;78.00;;;;;;5161563;23;19908;-82
2023/12/23 10:11:18;;;;;;;;;;;3.30;78.00;;;;;;5160502;23;19908;-81
2023/12/23 10:13:39;;;;;;;;;;;3.30;78.00;;;;;;5139896;23;20066;-81
2023/12/23 10:16:00;;;;;;;;;;;3.30;78.00;;;;;;5137461;23;19916;-81
2023/12/23 10:21:49;;;;;;;;;;;3.40;78.20;;;;;;5142285;22;20326;-83
2023/12/23 10:24:26;;;;;;;;;;;3.40;78.30;;;;;;5110266;23;19975;-84
2023/12/23 10:26:47;;;;;;;;;;;3.50;79.10;;;;;;5122135;22;19915;-84
2023/12/23 10:35:47;;;;;;;;;;;3.50;78.30;;;;;;5189096;22;20333;-83
2023/12/23 10:38:25;;;;;;;;;;;3.60;78.40;;;;;;5166402;22;19931;-83
2023/12/23 10:43:55;;;;;;;;;;;3.60;78.30;;;;;;5188025;22;19965;-84
2023/12/23 10:45:57;;;;;;;;;;;3.70;78.30;;;;;;5188221;22;20006;-83
2023/12/23 10:51:15;;;;;;;;;;;3.70;78.20;;;;;;5088644;23;19972;-82
2023/12/23 10:53:17;;;;;;;;;;;3.70;78.10;;;;;;5088826;23;19915;-82
2023/12/23 10:55:33;;;;;;;;;;;3.80;78.10;;;;;;5067828;23;20008;-84
2023/12/23 10:57:55;;;;;;;;;;;3.80;78.20;;;;;;5191431;22;19930;-83
2023/12/23 11:00:15;;;;;;;;;;;3.90;78.20;;;;;;5190378;22;19919;-83
2023/12/23 11:02:37;;;;;;;;;;;3.90;78.20;;;;;;5169113;22;19908;-83
2023/12/23 11:04:59;;;;;;;;;;;3.90;78.10;;;;;;5169931;22;19912;-84
2023/12/23 11:07:21;;;;;;;;;;;3.90;78.10;;;;;;5167334;22;19931;-83
2023/12/23 11:09:45;;;;;;;;;;;4.00;78.20;;;;;;5190337;22;19919;-83
2023/12/23 11:12:05;;;;;;;;;;;4.00;78.20;;;;;;5166781;22;19955;-83
2023/12/23 11:14:07;;;;;;;;;;;4.00;78.10;;;;;;5164184;23;20664;-84
2023/12/23 11:16:17;;;;;;;;;;;4.00;78.10;;;;;;5164492;23;19934;-82
2023/12/23 11:18:18;;;;;;;;;;;4.10;78.10;;;;;;5190276;22;19976;-84
2023/12/23 11:20:41;;;;;;;;;;;4.10;78.10;;;;;;5190463;22;19914;-83
2023/12/23 11:23:21;;;;;;;;;;;4.10;78.10;;;;;;5191230;22;19910;-83
2023/12/23 11:25:42;;;;;;;;;;;4.10;78.10;;;;;;5168259;22;19914;-83
2023/12/23 11:28:09;;;;;;;;;;;4.20;78.20;;;;;;5187777;22;20003;-83
2023/12/23 11:30:30;;;;;;;;;;;4.20;78.20;;;;;;5165816;22;19908;-83
2023/12/23 11:32:50;;;;;;;;;;;4.20;78.20;;;;;;5190321;22;19971;-83
2023/12/23 11:35:14;;;;;;;;;;;4.20;78.20;;;;;;5191582;22;19915;-83
2023/12/23 11:37:54;;;;;;;;;;;4.30;78.20;;;;;;5169763;22;19918;-83
2023/12/23 11:40:15;;;;;;;;;;;4.30;78.20;;;;;;5191658;22;19931;-83
2023/12/23 11:42:36;;;;;;;;;;;4.30;78.20;;;;;;5191062;22;19904;-83
2023/12/23 11:44:56;;;;;;;;;;;4.30;78.10;;;;;;5189779;22;19950;-83
2023/12/23 11:47:17;;;;;;;;;;;4.30;78.10;;;;;;5193430;22;19907;-81
2023/12/23 11:49:39;;;;;;;;;;;4.30;78.00;;;;;;5192095;22;19960;-82
2023/12/23 11:52:00;;;;;;;;;;;4.40;78.10;;;;;;5190167;22;19912;-83
2023/12/23 11:54:21;;;;;;;;;;;4.40;78.00;;;;;;5169531;22;19907;-83
2023/12/23 11:56:41;;;;;;;;;;;4.40;77.90;;;;;;5189950;22;20004;-83
2023/12/23 11:59:02;;;;;;;;;;;4.30;77.50;;;;;;5170875;22;19904;-83
2023/12/23 12:01:23;;;;;;;;;;;4.30;77.10;;;;;;5192838;22;19915;-83
2023/12/23 12:03:43;;;;;;;;;;;4.20;76.80;;;;;;5188580;22;19907;-83
2023/12/23 12:05:44;;;;;;;;;;;4.20;76.80;;;;;;5188124;22;20276;-83
2023/12/23 12:07:44;;;;;;;;;;;4.20;76.90;;;;;;5162991;23;19912;-82
2023/12/23 12:09:49;;;;;;;;;;;4.20;77.00;;;;;;5188802;22;20371;-83
2023/12/23 12:11:52;;;;;;;;;;;4.20;76.70;;;;;;5155159;22;19903;-82
2023/12/23 12:13:57;;;;;;;;;;;4.20;76.60;;;;;;5191669;22;20573;-83
2023/12/23 12:15:58;;;;;;;;;;;4.20;76.60;;;;;;5163730;23;19907;-82
2023/12/23 12:18:21;;;;;;;;;;;4.20;76.20;;;;;;5190042;22;19904;-84
2023/12/23 12:26:52;;;;;;;;;;;4.10;75.00;;;;;;5192691;22;19924;-81
2023/12/23 12:29:13;;;;;;;;;;;4.10;74.60;;;;;;5187510;22;20318;-81
2023/12/23 12:31:33;;;;;;;;;;;4.10;74.10;;;;;;5166938;23;20350;-84
2023/12/23 12:33:54;;;;;;;;;;;4.10;74.20;;;;;;5156640;23;19938;-81
2023/12/23 12:35:55;;;;;;;;;;;4.10;74.40;;;;;;5165186;23;20018;-82
2023/12/23 12:38:18;;;;;;;;;;;4.10;74.40;;;;;;5167924;23;19904;-83
2023/12/23 12:40:39;;;;;;;;;;;4.10;74.30;;;;;;5166354;23;19908;-83
2023/12/23 12:43:06;;;;;;;;;;;4.00;74.40;;;;;;5145217;23;19915;-82
2023/12/23 12:45:47;;;;;;;;;;;;;;;;;;;;;
2023/12/23 12:48:16;;;;;;;;;;;4.10;74.60;;;;;;5166002;23;19908;-82
2023/12/23 12:50:41;;;;;;;;;;;4.00;74.60;;;;;;5111913;23;20151;-81
2023/12/23 12:53:01;;;;;;;;;;;4.00;74.60;;;;;;5160397;23;19915;-81
2023/12/23 12:55:22;;;;;;;;;;;4.00;74.60;;;;;;5164708;23;19939;-81
2023/12/23 12:57:24;;;;;;;;;;;4.00;74.60;;;;;;5163075;23;19915;-81
2023/12/23 12:59:27;;;;;;;;;;;4.00;74.70;;;;;;5112986;23;19908;-81
2023/12/23 13:01:28;;;;;;;;;;;4.00;74.80;;;;;;5162513;23;19915;-81
2023/12/23 13:04:06;;;;;;;;;;;4.00;74.80;;;;;;5159636;23;20015;-83
2023/12/23 13:06:24;;;;;;;;;;;4.00;74.90;;;;;;5138566;23;19970;-80
2023/12/23 13:08:45;;;;;;;;;;;4.00;75.10;;;;;;5161334;23;19911;-81
2023/12/23 13:11:08;;;;;;;;;;;4.00;75.30;;;;;;5164444;23;20005;-82
2023/12/23 13:13:29;;;;;;;;;;;4.00;75.30;;;;;;5141157;23;19908;-81
2023/12/23 13:15:51;;;;;;;;;;;4.00;75.50;;;;;;5162543;23;19907;-81
2023/12/23 13:18:13;;;;;;;;;;;4.20;75.70;;;;;;5162828;22;19977;-82